This is the latest recevied weather packets stored in our database for station/object DL4ABR-6. If no packets are shown the sender has not sent any weather packets the latest 10 day(s).
| Time | Temp. | Humidity | Pressure | Rain* | Wind** | Luminosity | Snow |
|---|---|---|---|---|---|---|---|
| 1777622585 | 18.33° C | 48% | 1025.8 hPa | 0 mm | - | - | - |
| 1777621700 | 18.89° C | 47% | 1025.8 hPa | 0 mm | - | - | - |
| 1777620894 | 18.33° C | 49% | 1025.7 hPa | 0 mm | - | - | - |
| 1777620104 | 16.11° C | 53% | 1025.7 hPa | 0 mm | - | - | - |
| 1777619240 | 15.56° C | 54% | 1026 hPa | 0 mm | - | - | - |
| 1777618504 | 13.89° C | 60% | 1025.8 hPa | 0 mm | - | - | - |
| 1777617635 | 12.22° C | 65% | 1025.6 hPa | 0 mm | - | - | - |
| 1777616864 | 8.89° C | 79% | 1025.7 hPa | 0 mm | - | - | - |
| 1777616030 | 6.67° C | 95% | 1025.8 hPa | 0 mm | - | - | - |
| 1777615230 | 5.56° C | 96% | 1025.9 hPa | 0 mm | - | - | - |
| 1777614440 | 5° C | 97% | 1025.9 hPa | 0 mm | - | - | - |
| 1777613700 | 3.33° C | 96% | 1025.8 hPa | 0 mm | - | - | - |
| 1777612975 | 3.33° C | 96% | 1025.7 hPa | 0 mm | - | - | - |
| 1777612120 | 2.78° C | 96% | 1025.7 hPa | 0 mm | - | - | - |
| 1777611390 | 2.22° C | 96% | 1025.5 hPa | 0 mm | - | - | - |
| 1777610660 | 1.67° C | 96% | 1025.6 hPa | 0 mm | - | - | - |
| 1777609840 | 1.67° C | 95% | 1025.5 hPa | 0 mm | - | - | - |
| 1777609055 | 1.67° C | 95% | 1025.1 hPa | 0 mm | - | - | - |
| 1777608264 | 1.67° C | 95% | 1025.4 hPa | 0 mm | - | - | - |
| 1777607450 | 1.67° C | 95% | 1025.3 hPa | 0 mm | - | - | - |
| 1777606700 | 2.22° C | 94% | 1025.4 hPa | 0 mm | - | - | - |
| 1777605955 | 2.22° C | 94% | 1025.5 hPa | 0 mm | - | - | - |
| 1777605090 | 2.22° C | 94% | 1025.2 hPa | 0 mm | - | - | - |
| 1777604320 | 2.22° C | 94% | 1025.4 hPa | 0 mm | - | - | - |
| 1777603464 | 2.78° C | 93% | 1025.4 hPa | 0 mm | - | - | - |
* Rain since midnight (hover to see other rain measurements)
** Current wind speed in m/s (hover to see current wind gust speed)